createdAt,value
2023-05-15T00:00:22.494Z,41.78
2023-05-15T00:00:53.782Z,41.86
2023-05-15T00:01:25.081Z,41.99
2023-05-15T00:01:56.432Z,42.14
2023-05-15T00:02:27.937Z,42.22
2023-05-15T00:02:59.384Z,41.85
2023-05-15T00:03:30.892Z,41.80
2023-05-15T00:04:02.268Z,42.02
2023-05-15T00:04:33.578Z,41.88
2023-05-15T00:05:05.288Z,41.84
2023-05-15T00:05:36.756Z,41.71
2023-05-15T00:06:08.095Z,41.87
2023-05-15T00:06:39.435Z,42.09
2023-05-15T00:07:10.746Z,42.04
2023-05-15T00:07:42.107Z,41.93
2023-05-15T00:08:13.454Z,42.01
2023-05-15T00:08:44.769Z,41.79
2023-05-15T00:09:16.118Z,42.04
2023-05-15T00:09:47.416Z,41.71
2023-05-15T00:10:18.709Z,41.63
2023-05-15T00:11:00.775Z,41.77
2023-05-15T00:11:33.167Z,41.98
2023-05-15T00:12:04.608Z,41.82
2023-05-15T00:12:35.883Z,42.06
2023-05-15T00:13:07.172Z,41.70
2023-05-15T00:13:38.431Z,41.59
2023-05-15T00:14:09.757Z,41.82
2023-05-15T00:14:41.042Z,41.60
2023-05-15T00:15:12.428Z,41.55
2023-05-15T00:15:43.732Z,41.73
2023-05-15T00:16:15.042Z,41.59
2023-05-15T00:16:46.430Z,41.78
2023-05-15T00:17:17.764Z,41.65
2023-05-15T00:17:49.111Z,41.75
2023-05-15T00:18:20.500Z,41.77
2023-05-15T00:18:51.850Z,41.57
2023-05-15T00:19:23.172Z,41.81
2023-05-15T00:19:54.549Z,41.57
2023-05-15T00:20:25.907Z,41.54
2023-05-15T00:20:57.203Z,41.36
2023-05-15T00:21:28.462Z,41.44
2023-05-15T00:21:59.754Z,41.56
2023-05-15T00:22:31.016Z,41.53
2023-05-15T00:23:02.312Z,41.45
2023-05-15T00:23:33.596Z,41.53
2023-05-15T00:24:04.950Z,41.65
2023-05-15T00:24:36.256Z,41.66
2023-05-15T00:25:07.676Z,41.71
2023-05-15T00:25:39.037Z,41.42
2023-05-15T00:26:10.356Z,41.69
2023-05-15T00:26:41.642Z,41.47
2023-05-15T00:27:12.971Z,41.51
2023-05-15T00:27:44.267Z,41.50
2023-05-15T00:28:15.577Z,41.64
2023-05-15T00:28:46.884Z,41.38
2023-05-15T00:29:18.166Z,41.61
2023-05-15T00:29:49.470Z,41.48
2023-05-15T00:30:20.786Z,41.69
2023-05-15T00:30:52.176Z,41.52
2023-05-15T00:31:23.534Z,41.59
2023-05-15T00:31:54.941Z,41.72
2023-05-15T00:32:26.433Z,41.47
2023-05-15T00:32:57.812Z,41.77
2023-05-15T00:33:29.153Z,41.55
2023-05-15T00:34:00.444Z,41.62
2023-05-15T00:34:31.748Z,41.50
2023-05-15T00:35:03.168Z,41.51
2023-05-15T00:35:34.507Z,41.56
2023-05-15T00:36:06.157Z,41.24
2023-05-15T00:36:37.454Z,41.67
2023-05-15T00:37:08.855Z,41.71
2023-05-15T00:37:40.141Z,41.78
2023-05-15T00:38:11.455Z,41.76
2023-05-15T00:38:42.849Z,41.54
2023-05-15T00:39:14.153Z,41.64
2023-05-15T00:39:45.473Z,41.64
2023-05-15T00:40:18.901Z,41.46
2023-05-15T00:40:50.195Z,41.39
2023-05-15T00:41:21.483Z,41.58
2023-05-15T00:41:52.770Z,41.50
2023-05-15T00:42:24.037Z,41.65
2023-05-15T00:42:55.433Z,41.54
2023-05-15T00:43:26.740Z,41.35
2023-05-15T00:43:58.080Z,41.41
2023-05-15T00:44:30.692Z,41.60
2023-05-15T00:45:02.159Z,41.51
2023-05-15T00:45:33.482Z,41.32
2023-05-15T00:46:04.801Z,41.38
2023-05-15T00:46:36.164Z,41.55
2023-05-15T00:47:07.622Z,41.67
2023-05-15T00:47:39.038Z,41.60
2023-05-15T00:48:10.404Z,41.57
2023-05-15T00:48:41.699Z,41.66
2023-05-15T00:49:13.009Z,41.49
2023-05-15T00:49:44.322Z,41.37
2023-05-15T00:50:15.649Z,41.53
2023-05-15T00:50:46.995Z,41.32
2023-05-15T00:51:18.283Z,41.31
2023-05-15T00:51:49.599Z,41.25
2023-05-15T00:52:20.873Z,41.18
2023-05-15T00:52:52.226Z,41.47
2023-05-15T00:53:23.833Z,41.28
2023-05-15T00:53:55.138Z,41.27
2023-05-15T00:54:26.530Z,41.42
2023-05-15T00:54:57.815Z,41.40
2023-05-15T00:55:29.098Z,41.37
2023-05-15T00:56:00.451Z,41.27
2023-05-15T00:56:31.758Z,41.49
2023-05-15T00:57:03.815Z,41.55
2023-05-15T00:57:35.122Z,41.27
2023-05-15T00:58:07.374Z,41.55
2023-05-15T00:58:38.708Z,41.61
2023-05-15T00:59:09.980Z,41.52
2023-05-15T00:59:41.253Z,41.38
2023-05-15T01:00:12.816Z,41.61
2023-05-15T01:00:44.332Z,41.48
2023-05-15T01:01:16.332Z,41.56
2023-05-15T01:01:47.904Z,41.16
2023-05-15T01:02:19.447Z,41.33
2023-05-15T01:02:51.033Z,41.21
2023-05-15T01:03:22.821Z,41.29
2023-05-15T01:03:54.357Z,41.28
2023-05-15T01:04:26.090Z,41.22
2023-05-15T01:04:57.512Z,41.30
2023-05-15T01:05:29.078Z,41.45
2023-05-15T01:06:00.552Z,41.20
2023-05-15T01:06:32.139Z,41.52
2023-05-15T01:07:03.765Z,41.25
2023-05-15T01:07:35.487Z,41.38
2023-05-15T01:08:08.827Z,41.08
2023-05-15T01:08:40.342Z,41.17
2023-05-15T01:09:11.797Z,41.30
2023-05-15T01:09:45.473Z,41.36
2023-05-15T01:10:17.009Z,41.19
2023-05-15T01:10:48.564Z,41.41
2023-05-15T01:11:20.049Z,41.42
2023-05-15T01:11:53.618Z,41.09
2023-05-15T01:12:25.230Z,41.27
2023-05-15T01:12:56.800Z,41.06
2023-05-15T01:13:28.247Z,41.08
2023-05-15T01:13:59.769Z,41.18
2023-05-15T01:14:31.295Z,41.27
2023-05-15T01:15:02.841Z,40.96
2023-05-15T01:15:34.363Z,41.27
2023-05-15T01:16:06.224Z,41.37
2023-05-15T01:16:37.773Z,40.99
2023-05-15T01:17:09.417Z,41.08
2023-05-15T01:17:41.033Z,41.09
2023-05-15T01:18:12.611Z,41.20
2023-05-15T01:18:44.405Z,41.08
2023-05-15T01:19:16.339Z,41.19
2023-05-15T01:19:48.164Z,41.27
2023-05-15T01:20:19.805Z,41.21
2023-05-15T01:21:02.012Z,41.18
2023-05-15T01:21:36.403Z,41.03
2023-05-15T01:22:23.192Z,41.05
2023-05-15T01:22:57.453Z,40.81
2023-05-15T01:24:04.387Z,40.82
2023-05-15T01:24:54.391Z,41.20
2023-05-15T01:25:44.180Z,41.16
2023-05-15T01:26:30.941Z,41.17
2023-05-15T01:27:05.143Z,40.93
2023-05-15T01:27:43.796Z,40.89
2023-05-15T01:28:17.761Z,41.21
2023-05-15T01:28:51.921Z,41.01
2023-05-15T01:29:23.456Z,41.11
2023-05-15T01:29:57.808Z,41.21
2023-05-15T01:30:30.061Z,41.27
2023-05-15T01:31:03.106Z,41.06
2023-05-15T01:31:34.753Z,41.03
2023-05-15T01:32:09.683Z,41.17
2023-05-15T01:33:07.153Z,41.23
2023-05-15T01:33:39.032Z,40.98
2023-05-15T01:34:10.650Z,41.09
2023-05-15T01:34:54.268Z,41.15
2023-05-15T01:35:44.194Z,41.06
2023-05-15T01:36:15.702Z,40.86
2023-05-15T01:36:48.211Z,40.94
2023-05-15T01:37:21.607Z,41.23
2023-05-15T01:38:01.089Z,40.84
2023-05-15T01:38:38.861Z,41.12
2023-05-15T01:39:10.366Z,40.86
2023-05-15T01:39:42.292Z,41.08
2023-05-15T01:40:13.782Z,41.07
2023-05-15T01:40:45.345Z,41.04
2023-05-15T01:41:34.996Z,40.87
2023-05-15T01:42:09.649Z,41.06
2023-05-15T01:42:42.078Z,41.14
2023-05-15T01:43:15.935Z,41.00
2023-05-15T01:43:47.508Z,40.87
2023-05-15T01:44:19.703Z,41.01
2023-05-15T01:44:54.952Z,40.83
2023-05-15T01:45:29.290Z,40.89
2023-05-15T01:46:00.874Z,41.10
2023-05-15T01:46:32.456Z,41.03
2023-05-15T01:47:07.953Z,40.88
2023-05-15T01:47:43.011Z,41.08
2023-05-15T01:48:14.602Z,40.99
2023-05-15T01:48:46.191Z,40.86
2023-05-15T01:49:18.112Z,40.96
2023-05-15T01:49:49.858Z,40.81
2023-05-15T01:50:21.431Z,41.05
2023-05-15T01:50:52.972Z,40.74
2023-05-15T01:51:24.502Z,40.99
2023-05-15T01:51:57.382Z,40.77
2023-05-15T01:52:29.454Z,40.76
2023-05-15T01:53:01.006Z,40.83
2023-05-15T01:53:32.693Z,40.94
2023-05-15T01:54:04.234Z,41.00
2023-05-15T01:54:35.961Z,41.07
2023-05-15T01:55:07.643Z,40.72
2023-05-15T01:55:39.323Z,40.77
2023-05-15T01:56:11.874Z,40.76
2023-05-15T01:56:43.364Z,40.90
2023-05-15T01:57:14.968Z,40.80
2023-05-15T01:57:47.043Z,40.83
2023-05-15T01:58:18.613Z,40.76
2023-05-15T01:58:50.194Z,40.83
2023-05-15T01:59:21.748Z,40.66
2023-05-15T01:59:53.251Z,40.81
2023-05-15T02:00:24.831Z,40.66
2023-05-15T02:00:56.378Z,40.88
2023-05-15T02:01:27.956Z,40.78
2023-05-15T02:01:59.596Z,40.84
2023-05-15T02:02:31.202Z,40.81
2023-05-15T02:03:02.844Z,40.53
2023-05-15T02:03:34.496Z,40.80
2023-05-15T02:04:06.153Z,40.87
2023-05-15T02:04:38.146Z,40.88
2023-05-15T02:05:09.797Z,40.81
2023-05-15T02:05:41.310Z,40.90
2023-05-15T02:06:13.004Z,40.77
2023-05-15T02:06:44.620Z,40.63
2023-05-15T02:07:16.240Z,40.78
2023-05-15T02:07:47.810Z,40.81
2023-05-15T02:08:19.728Z,40.71
2023-05-15T02:08:51.290Z,40.68
2023-05-15T02:09:22.972Z,40.79
2023-05-15T02:09:54.511Z,40.52
2023-05-15T02:10:26.080Z,40.68
2023-05-15T02:10:58.016Z,40.61
2023-05-15T02:11:29.551Z,40.79
2023-05-15T02:12:01.194Z,40.57
2023-05-15T02:12:32.820Z,40.78
2023-05-15T02:13:04.831Z,40.81
2023-05-15T02:13:36.383Z,40.63
2023-05-15T02:14:08.764Z,40.60
2023-05-15T02:14:40.605Z,40.75
2023-05-15T02:15:12.208Z,40.53
2023-05-15T02:15:43.748Z,40.64
2023-05-15T02:16:15.328Z,40.81
2023-05-15T02:16:47.024Z,40.75
2023-05-15T02:17:18.556Z,40.76
2023-05-15T02:17:50.155Z,40.50
2023-05-15T02:18:21.786Z,40.82
2023-05-15T02:18:53.413Z,40.51
2023-05-15T02:19:24.944Z,40.45
2023-05-15T02:19:56.469Z,40.74
2023-05-15T02:20:28.107Z,40.72
2023-05-15T02:20:59.733Z,40.48
2023-05-15T02:21:31.293Z,40.76
2023-05-15T02:22:02.864Z,40.55
2023-05-15T02:22:34.417Z,40.57
2023-05-15T02:23:06.001Z,40.67
2023-05-15T02:23:37.534Z,40.74
2023-05-15T02:24:09.089Z,40.44
2023-05-15T02:24:40.642Z,40.64
2023-05-15T02:25:12.189Z,40.69
2023-05-15T02:25:43.810Z,40.48
2023-05-15T02:26:24.410Z,40.65
2023-05-15T02:27:14.330Z,40.56
2023-05-15T02:27:51.823Z,40.77
2023-05-15T02:28:31.314Z,40.63
2023-05-15T02:29:21.382Z,40.62
2023-05-15T02:29:55.647Z,40.42
2023-05-15T02:30:34.131Z,40.51
2023-05-15T02:31:06.701Z,40.62
2023-05-15T02:31:39.058Z,40.62
2023-05-15T02:32:19.692Z,40.65
2023-05-15T02:32:51.215Z,40.55
2023-05-15T02:33:41.107Z,40.71
2023-05-15T02:34:23.493Z,40.49
2023-05-15T02:35:13.322Z,40.52
2023-05-15T02:35:50.641Z,40.56
2023-05-15T02:36:23.692Z,40.78
2023-05-15T02:36:56.342Z,40.39
2023-05-15T02:37:28.482Z,40.48
2023-05-15T02:38:00.959Z,40.70
2023-05-15T02:38:33.934Z,40.38
2023-05-15T02:39:05.678Z,40.33
2023-05-15T02:39:37.503Z,40.83
2023-05-15T02:40:09.879Z,40.67
2023-05-15T02:40:41.384Z,40.46
2023-05-15T02:41:12.925Z,40.58
2023-05-15T02:41:45.164Z,40.81
2023-05-15T02:42:16.711Z,40.56
2023-05-15T02:42:48.586Z,40.74
2023-05-15T02:43:20.123Z,40.58
2023-05-15T02:43:51.955Z,40.62
2023-05-15T02:44:23.516Z,40.46
2023-05-15T02:44:55.359Z,40.40
2023-05-15T02:45:27.134Z,40.60
2023-05-15T02:45:58.927Z,40.62
2023-05-15T02:46:30.466Z,40.63
2023-05-15T02:47:02.080Z,40.58
2023-05-15T02:47:33.624Z,40.47
2023-05-15T02:48:05.485Z,40.69
2023-05-15T02:48:39.884Z,40.56
2023-05-15T02:49:11.530Z,40.50
2023-05-15T02:49:43.019Z,40.68
2023-05-15T02:50:14.652Z,40.62
2023-05-15T02:50:46.132Z,40.49
2023-05-15T02:51:17.718Z,40.58
2023-05-15T02:51:49.197Z,40.43
2023-05-15T02:52:20.745Z,40.35
2023-05-15T02:53:01.089Z,40.38
2023-05-15T02:53:33.054Z,40.50
2023-05-15T02:54:04.587Z,40.42
2023-05-15T02:54:36.081Z,40.54
2023-05-15T02:55:07.982Z,40.35
2023-05-15T02:55:39.503Z,40.29
2023-05-15T02:56:11.028Z,40.41
2023-05-15T02:56:42.575Z,40.55
2023-05-15T02:57:13.999Z,40.39
2023-05-15T02:57:45.513Z,40.42
2023-05-15T02:58:16.962Z,40.22
2023-05-15T02:58:48.461Z,40.28
2023-05-15T02:59:20.086Z,40.49
2023-05-15T02:59:52.335Z,40.46
2023-05-15T03:00:23.826Z,40.34
2023-05-15T03:00:55.393Z,40.42
2023-05-15T03:01:26.973Z,40.40
2023-05-15T03:01:58.578Z,40.30
2023-05-15T03:02:30.127Z,40.13
2023-05-15T03:03:01.802Z,40.14
2023-05-15T03:03:33.359Z,40.12
2023-05-15T03:04:05.154Z,40.17
2023-05-15T03:04:36.739Z,40.43
2023-05-15T03:05:08.530Z,40.20
2023-05-15T03:05:40.116Z,40.19
2023-05-15T03:06:11.658Z,40.42
2023-05-15T03:06:43.200Z,40.23
2023-05-15T03:07:14.644Z,40.31
2023-05-15T03:07:46.206Z,40.50
2023-05-15T03:08:17.791Z,40.40
2023-05-15T03:08:49.388Z,40.47
2023-05-15T03:09:20.905Z,40.18
2023-05-15T03:09:52.421Z,40.11
2023-05-15T03:10:23.928Z,40.28
2023-05-15T03:10:55.446Z,40.32
2023-05-15T03:11:26.929Z,40.05
2023-05-15T03:11:58.481Z,40.14
2023-05-15T03:12:30.096Z,40.23
2023-05-15T03:13:01.659Z,40.28
2023-05-15T03:13:33.116Z,40.12
2023-05-15T03:14:04.648Z,40.11
2023-05-15T03:14:36.189Z,40.07
2023-05-15T03:15:07.838Z,40.14
2023-05-15T03:15:39.349Z,40.21
2023-05-15T03:16:10.894Z,40.29
2023-05-15T03:16:42.387Z,40.30
2023-05-15T03:17:14.055Z,40.14
2023-05-15T03:17:45.691Z,40.33
2023-05-15T03:18:18.612Z,40.27
2023-05-15T03:18:50.460Z,40.04
2023-05-15T03:19:22.069Z,40.08
2023-05-15T03:19:53.524Z,40.24
2023-05-15T03:20:25.067Z,40.08
2023-05-15T03:20:56.632Z,40.10
2023-05-15T03:21:28.164Z,40.30
2023-05-15T03:21:59.652Z,40.09
2023-05-15T03:22:31.101Z,40.28
2023-05-15T03:23:02.639Z,40.31
2023-05-15T03:23:36.322Z,40.10
2023-05-15T03:24:09.153Z,40.26
2023-05-15T03:24:40.670Z,40.06
2023-05-15T03:25:12.182Z,40.47
2023-05-15T03:25:43.673Z,40.11
2023-05-15T03:26:15.172Z,40.16
2023-05-15T03:26:46.718Z,40.20
2023-05-15T03:27:18.143Z,39.95
2023-05-15T03:27:49.686Z,40.01
2023-05-15T03:28:21.308Z,40.23
2023-05-15T03:28:53.094Z,39.85
2023-05-15T03:29:24.730Z,40.12
2023-05-15T03:29:56.383Z,40.01
2023-05-15T03:30:27.850Z,39.98
2023-05-15T03:30:59.424Z,39.94
2023-05-15T03:31:31.108Z,39.89
2023-05-15T03:32:02.716Z,40.02
2023-05-15T03:32:34.209Z,39.75
2023-05-15T03:33:05.917Z,40.11
2023-05-15T03:33:37.930Z,39.98
2023-05-15T03:34:09.416Z,40.02
2023-05-15T03:34:41.252Z,39.94
2023-05-15T03:35:12.906Z,39.95
2023-05-15T03:35:44.411Z,40.14
2023-05-15T03:36:15.962Z,39.96
2023-05-15T03:36:47.433Z,40.16
2023-05-15T03:37:18.997Z,40.02
2023-05-15T03:37:50.450Z,40.17
2023-05-15T03:38:21.974Z,40.12
2023-05-15T03:38:53.455Z,40.00
2023-05-15T03:39:24.949Z,39.78
2023-05-15T03:39:56.449Z,39.84
2023-05-15T03:40:27.966Z,39.70
2023-05-15T03:40:59.492Z,40.17
2023-05-15T03:41:30.968Z,39.79
2023-05-15T03:42:02.794Z,39.96
2023-05-15T03:42:34.302Z,39.93
2023-05-15T03:43:06.239Z,39.82
2023-05-15T03:43:37.755Z,39.98
2023-05-15T03:44:09.273Z,39.73
2023-05-15T03:44:40.772Z,39.74
2023-05-15T03:45:12.345Z,39.89
2023-05-15T03:45:44.072Z,40.00
2023-05-15T03:46:15.774Z,39.79
2023-05-15T03:46:47.434Z,39.73
2023-05-15T03:47:18.970Z,39.85
2023-05-15T03:47:50.485Z,39.96
2023-05-15T03:48:22.078Z,39.72
2023-05-15T03:48:53.651Z,39.71
2023-05-15T03:49:25.120Z,39.83
2023-05-15T03:49:56.654Z,39.96
2023-05-15T03:50:28.196Z,39.78
2023-05-15T03:50:59.751Z,39.78
2023-05-15T03:51:31.291Z,39.76
2023-05-15T03:52:02.846Z,40.03
2023-05-15T03:52:34.382Z,39.96
2023-05-15T03:53:05.947Z,39.70
2023-05-15T03:53:37.424Z,40.00
2023-05-15T03:54:08.959Z,39.76
2023-05-15T03:54:40.540Z,39.76
2023-05-15T03:55:12.182Z,39.79
2023-05-15T03:55:43.812Z,39.77
2023-05-15T03:56:15.377Z,39.95
2023-05-15T03:56:46.859Z,40.06
2023-05-15T03:57:18.356Z,39.88
2023-05-15T03:57:49.904Z,39.75
2023-05-15T03:58:21.431Z,39.91
2023-05-15T03:58:53.154Z,39.81
2023-05-15T03:59:24.745Z,40.05
2023-05-15T03:59:56.300Z,39.89
2023-05-15T04:00:27.889Z,39.82
2023-05-15T04:00:59.448Z,39.82
2023-05-15T04:01:31.092Z,39.94
2023-05-15T04:02:05.107Z,39.81
2023-05-15T04:02:37.542Z,39.93
2023-05-15T04:03:09.212Z,40.03
2023-05-15T04:03:40.797Z,39.80
2023-05-15T04:04:12.340Z,39.85
2023-05-15T04:04:43.910Z,39.78
2023-05-15T04:05:15.554Z,39.89
2023-05-15T04:05:47.142Z,39.84
2023-05-15T04:06:18.654Z,39.95
2023-05-15T04:06:50.481Z,39.73
2023-05-15T04:07:21.975Z,39.91
2023-05-15T04:07:53.516Z,39.93
2023-05-15T04:08:25.017Z,39.80
2023-05-15T04:08:56.505Z,39.98
2023-05-15T04:09:28.056Z,39.76
2023-05-15T04:09:59.610Z,39.85
2023-05-15T04:10:31.097Z,39.87
2023-05-15T04:11:02.560Z,39.77
2023-05-15T04:11:34.106Z,39.87
2023-05-15T04:12:05.790Z,39.91
2023-05-15T04:12:37.316Z,40.06
2023-05-15T04:13:08.842Z,39.91
2023-05-15T04:13:40.346Z,39.84
2023-05-15T04:14:11.860Z,39.88
2023-05-15T04:14:43.368Z,39.86
2023-05-15T04:15:17.728Z,39.81
2023-05-15T04:15:49.236Z,40.07
2023-05-15T04:16:20.783Z,39.93
2023-05-15T04:16:52.414Z,40.13
2023-05-15T04:17:24.050Z,39.95
2023-05-15T04:17:55.611Z,40.12
2023-05-15T04:18:27.140Z,40.01
2023-05-15T04:18:58.693Z,40.12
2023-05-15T04:19:30.285Z,40.01
2023-05-15T04:20:01.812Z,40.07
2023-05-15T04:20:33.410Z,40.08
2023-05-15T04:21:05.002Z,40.24
2023-05-15T04:21:36.565Z,40.07
2023-05-15T04:22:08.142Z,40.21
2023-05-15T04:22:39.899Z,40.45
2023-05-15T04:23:11.492Z,40.30
2023-05-15T04:23:42.988Z,40.16
2023-05-15T04:24:14.682Z,40.29
2023-05-15T04:24:46.250Z,40.26
2023-05-15T04:25:17.816Z,40.13
2023-05-15T04:25:49.343Z,40.17
2023-05-15T04:26:20.899Z,40.20
2023-05-15T04:26:52.451Z,40.41
2023-05-15T04:27:23.923Z,40.30
2023-05-15T04:27:55.390Z,40.39
2023-05-15T04:28:27.669Z,40.26
2023-05-15T04:29:03.863Z,40.31
2023-05-15T04:29:35.981Z,40.29
2023-05-15T04:30:07.790Z,40.27
2023-05-15T04:30:39.393Z,40.33
2023-05-15T04:31:11.069Z,40.51
2023-05-15T04:31:42.818Z,40.35
2023-05-15T04:32:14.414Z,40.50
2023-05-15T04:32:46.028Z,40.39
2023-05-15T04:33:17.587Z,40.49
2023-05-15T04:33:50.030Z,40.55
2023-05-15T04:34:22.937Z,40.49
2023-05-15T04:34:54.442Z,40.58
2023-05-15T04:35:26.216Z,40.41
2023-05-15T04:35:57.953Z,40.40
2023-05-15T04:36:29.471Z,40.40
2023-05-15T04:37:01.008Z,40.52
2023-05-15T04:37:32.568Z,40.53
2023-05-15T04:38:04.038Z,40.37
2023-05-15T04:38:35.544Z,40.78
2023-05-15T04:39:07.034Z,40.51
2023-05-15T04:39:38.564Z,40.56
2023-05-15T04:40:10.182Z,40.65
2023-05-15T04:40:41.694Z,40.68
2023-05-15T04:41:13.256Z,40.90
2023-05-15T04:41:44.711Z,40.90
2023-05-15T04:42:16.293Z,40.90
2023-05-15T04:42:47.794Z,41.04
2023-05-15T04:43:19.403Z,40.91
2023-05-15T04:43:50.932Z,41.05
2023-05-15T04:44:22.516Z,41.17
2023-05-15T04:44:54.096Z,41.21
2023-05-15T04:45:25.905Z,41.38
2023-05-15T04:45:57.715Z,41.36
2023-05-15T04:46:29.470Z,41.42
2023-05-15T04:47:01.055Z,41.71
2023-05-15T04:47:32.671Z,41.69
2023-05-15T04:48:04.468Z,41.60
2023-05-15T04:48:35.971Z,41.68
2023-05-15T04:49:07.560Z,41.83
2023-05-15T04:49:39.453Z,41.82
2023-05-15T04:50:10.897Z,41.64
2023-05-15T04:50:42.455Z,41.84
2023-05-15T04:51:14.050Z,41.85
2023-05-15T04:51:45.765Z,41.95
2023-05-15T04:52:17.467Z,41.92
2023-05-15T04:52:49.130Z,41.96
2023-05-15T04:53:20.914Z,42.00
2023-05-15T04:53:52.476Z,42.10
2023-05-15T04:54:24.088Z,42.36
2023-05-15T04:54:55.729Z,42.38
2023-05-15T04:55:27.564Z,42.48
2023-05-15T04:55:59.216Z,42.35
2023-05-15T04:56:30.849Z,42.26
2023-05-15T04:57:02.337Z,42.47
2023-05-15T04:57:33.831Z,42.22
2023-05-15T04:58:05.347Z,42.52
2023-05-15T04:58:37.061Z,42.65
2023-05-15T04:59:08.622Z,42.58
2023-05-15T04:59:40.115Z,42.69
2023-05-15T05:00:11.900Z,42.54
2023-05-15T05:00:43.512Z,42.53
2023-05-15T05:01:15.024Z,42.37
2023-05-15T05:01:46.761Z,42.40
2023-05-15T05:02:21.127Z,42.61
2023-05-15T05:02:52.784Z,42.80
2023-05-15T05:03:24.362Z,42.56
2023-05-15T05:03:55.998Z,42.59
2023-05-15T05:04:27.545Z,42.72
2023-05-15T05:04:59.069Z,42.72
2023-05-15T05:05:30.560Z,42.62
2023-05-15T05:06:02.118Z,42.84
2023-05-15T05:06:33.601Z,42.67
2023-05-15T05:07:05.020Z,42.81
2023-05-15T05:07:36.517Z,42.92
2023-05-15T05:08:07.979Z,42.67
2023-05-15T05:08:39.504Z,42.74
2023-05-15T05:09:11.113Z,42.80
2023-05-15T05:09:42.839Z,42.66
2023-05-15T05:10:14.328Z,42.69
2023-05-15T05:10:45.882Z,42.90
2023-05-15T05:11:17.357Z,42.79
2023-05-15T05:11:48.868Z,42.76
2023-05-15T05:12:20.415Z,42.73
2023-05-15T05:12:51.967Z,42.70
2023-05-15T05:13:23.485Z,42.72
2023-05-15T05:13:55.063Z,42.84
2023-05-15T05:14:26.686Z,42.77
2023-05-15T05:14:58.235Z,42.79
2023-05-15T05:15:29.747Z,42.96
2023-05-15T05:16:01.290Z,42.85
2023-05-15T05:16:32.968Z,42.80
2023-05-15T05:17:04.658Z,42.99
2023-05-15T05:17:36.176Z,42.69
2023-05-15T05:18:07.797Z,42.95
2023-05-15T05:18:39.445Z,42.90
2023-05-15T05:19:11.198Z,42.92
2023-05-15T05:19:42.756Z,42.80
2023-05-15T05:20:14.384Z,42.92
2023-05-15T05:20:45.901Z,42.86
2023-05-15T05:21:17.613Z,43.08
2023-05-15T05:21:49.184Z,43.03
2023-05-15T05:22:20.779Z,42.84
2023-05-15T05:22:52.358Z,42.82
2023-05-15T05:23:23.893Z,42.97
2023-05-15T05:23:55.408Z,43.10
2023-05-15T05:24:27.071Z,43.07
2023-05-15T05:24:58.631Z,43.11
2023-05-15T05:25:30.196Z,42.89
2023-05-15T05:26:03.536Z,42.89
2023-05-15T05:26:35.898Z,43.03
2023-05-15T05:27:07.395Z,43.31
2023-05-15T05:27:38.916Z,43.37
2023-05-15T05:28:10.385Z,43.04
2023-05-15T05:28:41.948Z,42.94
2023-05-15T05:29:13.501Z,43.10
2023-05-15T05:29:45.023Z,42.91
2023-05-15T05:30:16.614Z,43.11
2023-05-15T05:30:48.281Z,42.99
2023-05-15T05:31:20.162Z,43.09
2023-05-15T05:31:51.828Z,42.86
2023-05-15T05:32:23.357Z,43.09
2023-05-15T05:32:54.960Z,43.02
2023-05-15T05:33:26.510Z,43.25
2023-05-15T05:33:57.996Z,43.04
2023-05-15T05:34:29.453Z,43.30
2023-05-15T05:35:00.999Z,42.95
2023-05-15T05:35:32.582Z,43.01
2023-05-15T05:36:04.187Z,43.25
2023-05-15T05:36:35.712Z,43.13
2023-05-15T05:37:07.277Z,42.90
2023-05-15T05:37:40.322Z,43.27
2023-05-15T05:38:12.786Z,43.19
2023-05-15T05:38:44.529Z,43.11
2023-05-15T05:39:16.224Z,43.31
2023-05-15T05:39:47.705Z,43.08
2023-05-15T05:40:19.172Z,43.11
2023-05-15T05:40:50.665Z,43.24
2023-05-15T05:41:22.168Z,43.17
2023-05-15T05:41:53.802Z,43.44
2023-05-15T05:42:25.290Z,43.19
2023-05-15T05:43:02.528Z,43.00
2023-05-15T05:43:33.984Z,43.34
2023-05-15T05:44:05.567Z,43.33
2023-05-15T05:44:37.073Z,43.35
2023-05-15T05:45:08.775Z,43.15
2023-05-15T05:45:40.231Z,43.35
2023-05-15T05:46:11.842Z,43.52
2023-05-15T05:46:43.426Z,43.30
2023-05-15T05:47:15.077Z,43.50
2023-05-15T05:47:46.624Z,43.48
2023-05-15T05:48:18.160Z,43.11
2023-05-15T05:48:49.691Z,43.42
2023-05-15T05:49:21.187Z,43.51
2023-05-15T05:49:52.818Z,43.26
2023-05-15T05:50:24.500Z,43.49
2023-05-15T05:50:55.999Z,43.35
2023-05-15T05:51:27.497Z,43.22
2023-05-15T05:52:04.732Z,43.18
2023-05-15T05:52:36.273Z,43.44
2023-05-15T05:53:07.843Z,43.21
2023-05-15T05:53:39.645Z,43.34
2023-05-15T05:54:11.216Z,43.50
2023-05-15T05:54:42.742Z,43.24
2023-05-15T05:55:14.260Z,43.48
2023-05-15T05:55:45.812Z,43.21
2023-05-15T05:56:17.252Z,43.36
2023-05-15T05:56:48.809Z,43.27
2023-05-15T05:57:20.285Z,43.35
2023-05-15T05:57:51.746Z,43.53
2023-05-15T05:58:25.923Z,43.20
2023-05-15T05:58:58.039Z,43.37
2023-05-15T05:59:29.531Z,43.54
2023-05-15T06:00:01.129Z,43.38
2023-05-15T06:00:32.671Z,43.51
2023-05-15T06:01:04.245Z,43.43
2023-05-15T06:01:35.801Z,43.25
2023-05-15T06:02:07.728Z,43.45
2023-05-15T06:02:39.660Z,43.08
2023-05-15T06:03:11.261Z,43.40
2023-05-15T06:03:42.894Z,43.43
2023-05-15T06:04:15.636Z,43.12
2023-05-15T06:04:48.397Z,43.27
2023-05-15T06:05:19.889Z,43.28
2023-05-15T06:05:51.429Z,43.22
2023-05-15T06:06:23.039Z,43.62
2023-05-15T06:06:54.600Z,43.42
2023-05-15T06:07:26.161Z,43.61
2023-05-15T06:07:57.741Z,43.54
2023-05-15T06:08:29.400Z,43.32
2023-05-15T06:09:00.898Z,43.42
2023-05-15T06:09:32.356Z,43.43
2023-05-15T06:10:04.052Z,43.34
2023-05-15T06:10:35.612Z,43.48
2023-05-15T06:11:07.164Z,43.43
2023-05-15T06:11:38.601Z,43.25
2023-05-15T06:12:10.316Z,43.63
2023-05-15T06:12:41.828Z,43.41
2023-05-15T06:13:13.339Z,43.53
2023-05-15T06:13:44.863Z,43.46
2023-05-15T06:14:16.430Z,43.36
2023-05-15T06:14:48.068Z,43.37
2023-05-15T06:15:19.657Z,43.51
2023-05-15T06:15:51.216Z,43.40
2023-05-15T06:16:22.774Z,43.63
2023-05-15T06:16:54.368Z,43.35
2023-05-15T06:17:26.010Z,43.35
2023-05-15T06:17:57.606Z,43.53
2023-05-15T06:18:29.151Z,43.60
2023-05-15T06:19:00.762Z,43.41
2023-05-15T06:19:32.298Z,43.68
2023-05-15T06:20:04.012Z,43.68
2023-05-15T06:20:35.586Z,43.61
2023-05-15T06:21:07.144Z,43.49
2023-05-15T06:21:38.657Z,43.36
2023-05-15T06:22:10.218Z,43.44
2023-05-15T06:22:41.749Z,43.64
2023-05-15T06:23:13.343Z,43.47
2023-05-15T06:23:44.909Z,43.54
2023-05-15T06:24:16.457Z,43.48
2023-05-15T06:24:48.035Z,43.28
2023-05-15T06:25:19.683Z,43.24
2023-05-15T06:25:51.255Z,43.22
2023-05-15T06:26:22.831Z,43.56
2023-05-15T06:26:54.313Z,43.46
2023-05-15T06:27:25.983Z,43.66
2023-05-15T06:27:57.514Z,43.67
2023-05-15T06:28:29.113Z,43.43
2023-05-15T06:29:00.647Z,43.63
2023-05-15T06:29:32.248Z,43.46
2023-05-15T06:30:04.036Z,43.60
2023-05-15T06:30:35.514Z,43.41
2023-05-15T06:31:07.272Z,43.53
2023-05-15T06:31:38.950Z,43.66
2023-05-15T06:32:10.618Z,43.49
2023-05-15T06:32:42.380Z,43.61
2023-05-15T06:33:14.102Z,43.43
2023-05-15T06:33:45.941Z,43.72
2023-05-15T06:34:17.469Z,43.49
2023-05-15T06:34:49.096Z,43.76
2023-05-15T06:35:20.620Z,43.68
2023-05-15T06:35:52.165Z,43.58
2023-05-15T06:36:23.861Z,43.38
2023-05-15T06:36:55.312Z,43.40
2023-05-15T06:37:26.877Z,43.37
2023-05-15T06:37:58.606Z,43.44
2023-05-15T06:38:30.469Z,43.60
2023-05-15T06:39:02.099Z,43.33
2023-05-15T06:39:33.841Z,43.46
2023-05-15T06:40:05.753Z,43.29
2023-05-15T06:40:37.338Z,43.36
2023-05-15T06:41:08.872Z,43.51
2023-05-15T06:41:40.509Z,43.42
2023-05-15T06:42:12.119Z,43.46
2023-05-15T06:42:43.762Z,43.43
2023-05-15T06:43:15.367Z,43.44
2023-05-15T06:43:46.880Z,43.54
2023-05-15T06:44:18.436Z,43.44
2023-05-15T06:44:50.159Z,43.44
2023-05-15T06:45:21.762Z,43.67
2023-05-15T06:45:53.396Z,43.49
2023-05-15T06:46:25.069Z,43.54
2023-05-15T06:46:56.796Z,43.62
2023-05-15T06:47:28.522Z,43.54
2023-05-15T06:48:01.904Z,43.66
2023-05-15T06:48:33.684Z,43.43
2023-05-15T06:49:05.277Z,43.67
2023-05-15T06:49:36.899Z,43.72
2023-05-15T06:50:08.725Z,43.48
2023-05-15T06:50:40.313Z,43.46
2023-05-15T06:51:11.852Z,43.39
2023-05-15T06:51:43.493Z,43.64
2023-05-15T06:52:15.096Z,43.49
2023-05-15T06:52:46.590Z,43.61
2023-05-15T06:53:18.077Z,43.67
2023-05-15T06:53:49.571Z,43.48
2023-05-15T06:54:21.222Z,43.42